Montrose, AL (36559)

1:29 PM CDT on July 30, 2016 (GMT -0500)
Ecor Rouge | | Change Station

Elev 0 ft 30.56 °N, 87.90 °W | Updated 4 minutes ago

Clear
Clear
90.6 °F
Feels Like 87 °F
N
2.0
Wind Variable Wind from SSW
Gusts 3.0 mph

Today
High -- | Low -- °F
--% Chance of Precip.
Yesterday
High -- | Low -- °F
Precip. -- in
Pressure 30.04 in
Visibility 10.0 miles
Clouds Clear
Heat Index 87 °F
Dew Point Not available.
Humidity Not available.
Rainfall 0.00 in
Snow Depth Not available.
6:08 AM 7:46 PM
Waning Crescent, 12% visible
METAR KCQF 301815Z AUTO 23005KT 10SM CLR 31/25 A3004 RMK AO2
Pressure 30.04 in
Visibility 10.0 miles
Clouds Clear
Heat Index 87 °F
Dew Point Not available.
Humidity Not available.
Rainfall 0.00 in
Snow Depth Not available.
6:08 AM 7:46 PM
Waning Crescent, 12% visible
METAR KCQF 301815Z AUTO 23005KT 10SM CLR 31/25 A3004 RMK AO2

10-Day Weather Forecast

Almanac

Astronomy

Jul. 30, 2016 Rise Set
Actual Time
Civil Twilight
Nautical Twilight
Astronomical Twilight
Moon
Length of Visible Light
Length of Day
Tomorrow will be .
, % of the Moon is Illuminated

Today's Extremes

State Highs State Lows

Community

WunderPhotos

Upload Photos

1,928,608 photos uploaded!

WunderBlog® & News

Nearby

Air Quality

  Air Quality AQ Index Pollutant
Not available.

Snow Depth

Station Depth Elevation

Earthquake Activity

City Distance Mag. Time & Date
Minimum magnitude displayed is 2.5.

Coastal Water Temperatures

Place Temperature

Stations

Nearby Weather Stations

Station Location Temp. Windchill Dew Point Humidity Wind Precip. Elev Updated Type
                   

Watches & Warnings

There are currently no watches in effect.